createdAt,value
2023-04-16T00:02:06.223Z,100992.88
2023-04-16T00:04:33.435Z,101001.75
2023-04-16T00:07:00.809Z,100997.94
2023-04-16T00:09:27.841Z,101001.69
2023-04-16T00:11:54.960Z,100996.56
2023-04-16T00:14:22.117Z,101003.31
2023-04-16T00:16:49.285Z,100994.59
2023-04-16T00:19:16.241Z,101002.41
2023-04-16T00:21:43.283Z,100997.19
2023-04-16T00:24:10.579Z,101001.50
2023-04-16T00:26:38.037Z,101001.50
2023-04-16T00:29:04.962Z,101001.19
2023-04-16T00:31:33.904Z,100996.56
2023-04-16T00:34:01.384Z,100999.72
2023-04-16T00:36:29.058Z,101002.16
2023-04-16T00:38:57.122Z,101002.66
2023-04-16T00:41:24.385Z,100999.88
2023-04-16T00:43:51.509Z,101003.38
2023-04-16T00:46:22.353Z,101004.44
2023-04-16T00:48:51.533Z,101018.34
2023-04-16T00:51:20.400Z,101005.50
2023-04-16T00:53:47.842Z,101005.00
2023-04-16T00:56:15.115Z,101006.31
2023-04-16T00:58:42.094Z,101023.56
2023-04-16T01:01:09.269Z,101007.44
2023-04-16T01:03:43.138Z,101015.84
2023-04-16T01:06:11.632Z,101012.09
2023-04-16T01:08:39.835Z,101013.47
2023-04-16T01:11:06.906Z,101017.78
2023-04-16T01:13:34.078Z,101019.66
2023-04-16T01:16:01.666Z,101020.22
2023-04-16T01:18:28.934Z,101018.59
2023-04-16T01:20:55.955Z,101024.06
2023-04-16T01:23:23.049Z,101024.63
2023-04-16T01:25:50.095Z,101016.56
2023-04-16T01:28:17.420Z,101025.19
2023-04-16T01:30:44.705Z,101030.06
2023-04-16T01:33:34.718Z,101024.22
2023-04-16T01:36:01.736Z,101021.53
2023-04-16T01:38:28.804Z,101022.59
2023-04-16T01:40:58.081Z,101030.16
2023-04-16T01:43:25.478Z,101024.22
2023-04-16T01:46:07.189Z,101022.91
2023-04-16T01:48:34.694Z,101029.34
2023-04-16T01:51:01.658Z,101035.03
2023-04-16T01:53:28.834Z,101035.03
2023-04-16T01:55:56.206Z,101036.91
2023-04-16T01:58:23.723Z,101032.34
2023-04-16T02:00:50.907Z,101031.78
2023-04-16T02:03:18.760Z,101032.34
2023-04-16T02:05:47.222Z,101039.94
2023-04-16T02:08:14.306Z,101038.91
2023-04-16T02:10:41.356Z,101047.03
2023-04-16T02:13:08.931Z,101049.16
2023-04-16T02:15:35.886Z,101047.28
2023-04-16T02:18:02.904Z,101046.72
2023-04-16T02:20:30.322Z,101052.66
2023-04-16T02:23:00.494Z,101050.22
2023-04-16T02:25:27.786Z,101040.16
2023-04-16T02:27:56.212Z,101045.66
2023-04-16T02:30:31.961Z,101059.66
2023-04-16T02:32:59.472Z,101058.84
2023-04-16T02:35:27.188Z,101055.91
2023-04-16T02:37:54.157Z,101061.28
2023-04-16T02:40:22.049Z,101057.78
2023-04-16T02:42:48.978Z,101060.47
2023-04-16T02:45:16.346Z,101059.91
2023-04-16T02:47:43.478Z,101059.31
2023-04-16T02:50:11.221Z,101065.84
2023-04-16T02:52:38.160Z,101061.53
2023-04-16T02:55:06.500Z,101058.03
2023-04-16T02:57:34.007Z,101070.16
2023-04-16T03:00:01.305Z,101066.91
2023-04-16T03:02:28.957Z,101060.47
2023-04-16T03:04:56.106Z,101066.41
2023-04-16T03:07:23.102Z,101061.53
2023-04-16T03:09:50.287Z,101076.09
2023-04-16T03:12:17.299Z,101074.16
2023-04-16T03:14:45.276Z,101068.78
2023-04-16T03:17:12.758Z,101072.28
2023-04-16T03:19:39.649Z,101074.84
2023-04-16T03:22:06.914Z,101078.81
2023-04-16T03:24:34.069Z,101094.44
2023-04-16T03:27:02.426Z,101084.44
2023-04-16T03:29:29.680Z,101081.41
2023-04-16T03:31:57.606Z,101085.41
2023-04-16T03:34:25.807Z,101093.47
2023-04-16T03:36:53.061Z,101085.66
2023-04-16T03:39:20.669Z,101093.94
2023-04-16T03:41:47.927Z,101089.06
2023-04-16T03:44:14.989Z,101088.25
2023-04-16T03:46:42.753Z,101098.19
2023-04-16T03:49:10.056Z,101097.13
2023-04-16T03:51:37.081Z,101101.59
2023-04-16T03:54:04.655Z,101104.03
2023-04-16T03:56:32.638Z,101097.50
2023-04-16T03:58:59.744Z,101103.94
2023-04-16T04:01:28.267Z,101118.66
2023-04-16T04:03:55.627Z,101108.31
2023-04-16T04:06:23.016Z,101121.25
2023-04-16T04:08:50.267Z,101108.53
2023-04-16T04:11:17.309Z,101124.41
2023-04-16T04:13:44.929Z,101128.72
2023-04-16T04:16:12.055Z,101128.38
2023-04-16T04:18:39.238Z,101127.00
2023-04-16T04:21:08.623Z,101144.84
2023-04-16T04:23:36.606Z,101133.53
2023-04-16T04:26:05.936Z,101143.19
2023-04-16T04:28:34.092Z,101131.66
2023-04-16T04:31:01.797Z,101147.75
2023-04-16T04:33:30.804Z,101141.56
2023-04-16T04:35:58.113Z,101146.13
2023-04-16T04:38:25.963Z,101149.38
2023-04-16T04:40:53.937Z,101135.16
2023-04-16T04:43:22.924Z,101140.03
2023-04-16T04:45:50.952Z,101140.53
2023-04-16T04:48:18.752Z,101142.38
2023-04-16T04:50:46.530Z,101154.28
2023-04-16T04:53:14.892Z,101158.84
2023-04-16T04:55:42.066Z,101159.66
2023-04-16T04:58:09.548Z,101152.16
2023-04-16T05:00:37.213Z,101155.66
2023-04-16T05:03:06.246Z,101167.56
2023-04-16T05:05:33.415Z,101168.38
2023-04-16T05:08:00.389Z,101163.25
2023-04-16T05:10:28.014Z,101172.13
2023-04-16T05:12:54.867Z,101169.91
2023-04-16T05:15:21.999Z,101169.66
2023-04-16T05:17:49.112Z,101179.13
2023-04-16T05:20:16.206Z,101189.84
2023-04-16T05:22:43.088Z,101188.47
2023-04-16T05:25:10.546Z,101193.59
2023-04-16T05:27:38.241Z,101190.09
2023-04-16T05:30:05.968Z,101200.59
2023-04-16T05:32:33.286Z,101190.56
2023-04-16T05:35:00.585Z,101191.97
2023-04-16T05:37:27.636Z,101198.97
2023-04-16T05:39:54.693Z,101195.22
2023-04-16T05:42:21.840Z,101194.66
2023-04-16T05:44:48.661Z,101203.28
2023-04-16T05:47:15.714Z,101198.97
2023-04-16T05:49:42.667Z,101194.66
2023-04-16T05:52:10.444Z,101202.22
2023-04-16T05:54:37.605Z,101212.00
2023-04-16T05:57:04.674Z,101198.25
2023-04-16T05:59:31.629Z,101202.41
2023-04-16T06:01:58.531Z,101211.63
2023-04-16T06:04:25.837Z,101214.31
2023-04-16T06:06:52.743Z,101209.53
2023-04-16T06:09:19.852Z,101220.03
2023-04-16T06:11:46.767Z,101214.16
2023-04-16T06:14:13.724Z,101225.03
2023-04-16T06:16:40.767Z,101217.66
2023-04-16T06:19:07.978Z,101235.53
2023-04-16T06:21:35.032Z,101219.66
2023-04-16T06:24:02.200Z,101227.00
2023-04-16T06:26:29.164Z,101231.09
2023-04-16T06:28:56.200Z,101224.66
2023-04-16T06:31:23.245Z,101235.84
2023-04-16T06:33:50.150Z,101235.59
2023-04-16T06:36:17.068Z,101247.72
2023-04-16T06:38:44.108Z,101241.38
2023-04-16T06:41:11.143Z,101237.16
2023-04-16T06:43:38.197Z,101236.72
2023-04-16T06:46:05.235Z,101245.91
2023-04-16T06:48:32.469Z,101238.75
2023-04-16T06:51:00.373Z,101238.28
2023-04-16T06:53:27.615Z,101239.19
2023-04-16T06:55:54.713Z,101245.69
2023-04-16T06:58:22.597Z,101240.41
2023-04-16T07:00:49.776Z,101253.94
2023-04-16T07:03:16.907Z,101249.22
2023-04-16T07:05:43.945Z,101252.22
2023-04-16T07:08:11.425Z,101251.50
2023-04-16T07:10:38.592Z,101257.78
2023-04-16T07:13:06.999Z,101251.34
2023-04-16T07:15:34.008Z,101254.09
2023-04-16T07:18:01.154Z,101263.88
2023-04-16T07:20:28.331Z,101260.94
2023-04-16T07:22:55.572Z,101263.97
2023-04-16T07:25:22.614Z,101261.28
2023-04-16T07:27:49.826Z,101266.41
2023-04-16T07:30:16.901Z,101267.78
2023-04-16T07:32:44.145Z,101280.31
2023-04-16T07:35:11.262Z,101265.19
2023-04-16T07:37:38.233Z,101276.09
2023-04-16T07:40:06.260Z,101272.34
2023-04-16T07:42:33.368Z,101283.50
2023-04-16T07:45:00.357Z,101276.06
2023-04-16T07:47:27.324Z,101277.22
2023-04-16T07:49:55.178Z,101286.41
2023-04-16T07:52:22.098Z,101280.53
2023-04-16T07:54:49.036Z,101289.75
2023-04-16T07:57:17.160Z,101289.50
2023-04-16T07:59:44.328Z,101287.94
2023-04-16T08:02:16.418Z,101294.78
2023-04-16T08:04:44.894Z,101293.41
2023-04-16T08:07:12.420Z,101296.91
2023-04-16T08:09:52.093Z,101303.09
2023-04-16T08:12:19.542Z,101290.38
2023-04-16T08:14:47.171Z,101294.47
2023-04-16T08:17:14.971Z,101309.81
2023-04-16T08:19:45.019Z,101311.69
2023-04-16T08:22:13.226Z,101314.38
2023-04-16T08:24:40.593Z,101314.06
2023-04-16T08:27:17.741Z,101314.88
2023-04-16T08:29:45.554Z,101317.81
2023-04-16T08:32:13.008Z,101321.81
2023-04-16T08:34:40.450Z,101327.44
2023-04-16T08:37:07.563Z,101327.19
2023-04-16T08:39:35.151Z,101334.47
2023-04-16T08:42:05.577Z,101338.78
2023-04-16T08:44:35.557Z,101334.13
2023-04-16T08:47:03.164Z,101332.09
2023-04-16T08:49:32.826Z,101342.84
2023-04-16T08:52:00.036Z,101345.88
2023-04-16T08:54:38.772Z,101345.38
2023-04-16T08:57:10.516Z,101338.13
2023-04-16T08:59:38.635Z,101343.75
2023-04-16T09:02:07.006Z,101349.63
2023-04-16T09:04:34.685Z,101351.75
2023-04-16T09:07:04.247Z,101352.56
2023-04-16T09:09:33.442Z,101360.56
2023-04-16T09:12:01.672Z,101364.31
2023-04-16T09:14:29.175Z,101365.72
2023-04-16T09:17:01.248Z,101361.38
2023-04-16T09:19:28.610Z,101366.28
2023-04-16T09:21:55.577Z,101369.53
2023-04-16T09:24:23.076Z,101371.81
2023-04-16T09:26:52.701Z,101376.22
2023-04-16T09:29:40.172Z,101369.84
2023-04-16T09:32:11.848Z,101378.88
2023-04-16T09:34:57.752Z,101369.31
2023-04-16T09:37:27.324Z,101374.06
2023-04-16T09:40:05.104Z,101376.13
2023-04-16T09:42:36.827Z,101373.59
2023-04-16T09:45:05.938Z,101384.81
2023-04-16T09:47:43.266Z,101385.75
2023-04-16T09:50:18.113Z,101383.88
2023-04-16T09:52:50.607Z,101391.75
2023-04-16T09:55:24.020Z,101385.06
2023-04-16T09:58:00.467Z,101385.09
2023-04-16T10:00:29.412Z,101385.06
2023-04-16T10:03:07.386Z,101393.66
2023-04-16T10:05:35.105Z,101387.13
2023-04-16T10:08:02.670Z,101384.44
2023-04-16T10:10:29.941Z,101395.78
2023-04-16T10:12:57.859Z,101399.28
2023-04-16T10:15:25.238Z,101392.84
2023-04-16T10:17:54.223Z,101401.50
2023-04-16T10:20:22.732Z,101393.66
2023-04-16T10:22:50.496Z,101399.84
2023-04-16T10:25:18.528Z,101396.09
2023-04-16T10:27:45.875Z,101400.66
2023-04-16T10:30:15.990Z,101399.59
2023-04-16T10:32:43.928Z,101397.66
2023-04-16T10:35:17.108Z,101395.78
2023-04-16T10:37:45.482Z,101395.28
2023-04-16T10:40:27.176Z,101391.38
2023-04-16T10:42:59.115Z,101387.22
2023-04-16T10:45:37.727Z,101391.22
2023-04-16T10:48:08.739Z,101407.38
2023-04-16T10:50:39.704Z,101394.00
2023-04-16T10:53:27.882Z,101405.19
2023-04-16T10:56:07.185Z,101404.13
2023-04-16T10:58:36.584Z,101407.63
2023-04-16T11:01:14.929Z,101406.53
2023-04-16T11:03:49.100Z,101404.13
2023-04-16T11:06:23.882Z,101405.50
2023-04-16T11:08:57.589Z,101409.81
2023-04-16T11:11:25.077Z,101419.84
2023-04-16T11:13:56.698Z,101415.56
2023-04-16T11:16:26.201Z,101421.25
2023-04-16T11:18:55.062Z,101418.38
2023-04-16T11:21:24.516Z,101418.41
2023-04-16T11:23:53.357Z,101415.47
2023-04-16T11:26:29.236Z,101429.31
2023-04-16T11:28:57.307Z,101415.84
2023-04-16T11:31:24.826Z,101421.78
2023-04-16T11:33:51.972Z,101429.69
2023-04-16T11:36:21.629Z,101418.38
2023-04-16T11:38:49.002Z,101421.38
2023-04-16T11:41:22.005Z,101419.81
2023-04-16T11:43:49.190Z,101419.59
2023-04-16T11:46:27.072Z,101413.38
2023-04-16T11:48:56.069Z,101424.31
2023-04-16T11:51:23.945Z,101422.97
2023-04-16T11:53:53.534Z,101419.47
2023-04-16T11:56:35.210Z,101421.94
2023-04-16T11:59:16.953Z,101430.59
2023-04-16T12:01:57.685Z,101431.69
2023-04-16T12:04:29.306Z,101439.53
2023-04-16T12:07:13.221Z,101438.72
2023-04-16T12:09:42.800Z,101430.56
2023-04-16T12:12:32.691Z,101445.06
2023-04-16T12:15:05.076Z,101442.81
2023-04-16T12:17:34.845Z,101451.41
2023-04-16T12:20:11.135Z,101445.56
2023-04-16T12:22:40.959Z,101454.69
2023-04-16T12:25:14.365Z,101459.19
2023-04-16T12:27:53.317Z,101456.91
2023-04-16T12:30:23.185Z,101463.28
2023-04-16T12:32:52.847Z,101467.53
2023-04-16T12:35:34.029Z,101455.81
2023-04-16T12:38:01.501Z,101460.81
2023-04-16T12:40:28.641Z,101460.16
2023-04-16T12:42:55.983Z,101462.25
2023-04-16T12:45:24.855Z,101447.06
2023-04-16T12:47:52.241Z,101464.59
2023-04-16T12:50:19.422Z,101466.94
2023-04-16T12:52:46.349Z,101468.75
2023-04-16T12:55:14.364Z,101461.31
2023-04-16T12:57:41.667Z,101468.28
2023-04-16T13:00:10.643Z,101472.56
2023-04-16T13:02:37.956Z,101475.44
2023-04-16T13:05:05.607Z,101466.66
2023-04-16T13:07:33.940Z,101480.81
2023-04-16T13:10:01.413Z,101487.53
2023-04-16T13:12:28.558Z,101486.00
2023-04-16T13:14:58.592Z,101484.63
2023-04-16T13:17:25.677Z,101497.22
2023-04-16T13:19:52.731Z,101487.38
2023-04-16T13:22:19.901Z,101494.09
2023-04-16T13:24:46.970Z,101481.34
2023-04-16T13:27:16.235Z,101493.28
2023-04-16T13:29:43.367Z,101494.81
2023-04-16T13:32:10.503Z,101496.69
2023-04-16T13:34:37.660Z,101495.06
2023-04-16T13:37:04.653Z,101497.19
2023-04-16T13:39:31.715Z,101491.00
2023-04-16T13:41:58.704Z,101478.22
2023-04-16T13:44:26.082Z,101486.66
2023-04-16T13:46:53.278Z,101482.09
2023-04-16T13:49:20.361Z,101478.34
2023-04-16T13:51:47.324Z,101486.50
2023-04-16T13:54:14.393Z,101495.97
2023-04-16T13:56:41.476Z,101491.22
2023-04-16T13:59:08.837Z,101485.44
2023-04-16T14:01:36.198Z,101486.88
2023-04-16T14:04:06.850Z,101486.53
2023-04-16T14:06:34.913Z,101486.41
2023-04-16T14:09:02.077Z,101477.88
2023-04-16T14:11:29.344Z,101493.38
2023-04-16T14:13:56.469Z,101493.25
2023-04-16T14:16:23.800Z,101482.25
2023-04-16T14:18:52.234Z,101487.50
2023-04-16T14:21:19.390Z,101482.97
2023-04-16T14:23:46.839Z,101491.38
2023-04-16T14:26:14.890Z,101483.66
2023-04-16T14:28:42.182Z,101481.59
2023-04-16T14:31:09.310Z,101482.72
2023-04-16T14:33:37.120Z,101488.47
2023-04-16T14:36:04.516Z,101486.91
2023-04-16T14:38:31.967Z,101485.53
2023-04-16T14:41:00.215Z,101486.34
2023-04-16T14:43:27.469Z,101491.75
2023-04-16T14:45:54.550Z,101491.69
2023-04-16T14:48:22.076Z,101494.84
2023-04-16T14:50:48.988Z,101499.63
2023-04-16T14:53:16.016Z,101498.47
2023-04-16T14:55:43.127Z,101505.94
2023-04-16T14:58:10.840Z,101496.34
2023-04-16T15:00:38.038Z,101505.72
2023-04-16T15:03:05.804Z,101512.03
2023-04-16T15:05:33.166Z,101498.09
2023-04-16T15:08:00.644Z,101507.44
2023-04-16T15:10:28.057Z,101512.44
2023-04-16T15:12:55.232Z,101505.28
2023-04-16T15:15:22.207Z,101516.28
2023-04-16T15:17:50.983Z,101511.09
2023-04-16T15:20:18.417Z,101516.91
2023-04-16T15:22:45.517Z,101514.81
2023-04-16T15:25:12.692Z,101513.19
2023-04-16T15:27:39.717Z,101527.97
2023-04-16T15:30:08.054Z,101530.34
2023-04-16T15:32:35.101Z,101515.94
2023-04-16T15:35:03.543Z,101523.22
2023-04-16T15:37:31.110Z,101522.88
2023-04-16T15:39:58.389Z,101525.34
2023-04-16T15:42:25.996Z,101527.22
2023-04-16T15:44:52.984Z,101534.47
2023-04-16T15:47:20.166Z,101536.59
2023-04-16T15:49:47.189Z,101540.59
2023-04-16T15:52:14.556Z,101534.31
2023-04-16T15:54:43.367Z,101549.19
2023-04-16T15:57:10.766Z,101549.66
2023-04-16T15:59:38.002Z,101546.06
2023-04-16T16:02:05.085Z,101544.44
2023-04-16T16:04:32.317Z,101542.72
2023-04-16T16:06:59.333Z,101561.56
2023-04-16T16:09:26.945Z,101545.31
2023-04-16T16:11:54.901Z,101553.06
2023-04-16T16:14:23.218Z,101544.66
2023-04-16T16:16:50.212Z,101555.66
2023-04-16T16:19:20.261Z,101547.50
2023-04-16T16:21:47.402Z,101557.69
2023-04-16T16:24:14.505Z,101563.09
2023-04-16T16:26:41.752Z,101561.94
2023-04-16T16:29:08.960Z,101561.59
2023-04-16T16:31:36.055Z,101566.97
2023-04-16T16:34:03.098Z,101568.84
2023-04-16T16:36:32.406Z,101561.75
2023-04-16T16:38:59.341Z,101569.81
2023-04-16T16:41:26.435Z,101567.59
2023-04-16T16:43:56.127Z,101559.69
2023-04-16T16:46:23.437Z,101560.63
2023-04-16T16:48:50.482Z,101574.00
2023-04-16T16:51:19.056Z,101583.78
2023-04-16T16:53:46.620Z,101583.09
2023-04-16T16:56:13.589Z,101586.50
2023-04-16T16:58:41.712Z,101583.69
2023-04-16T17:01:08.822Z,101588.97
2023-04-16T17:03:35.962Z,101588.28
2023-04-16T17:06:03.177Z,101591.09
2023-04-16T17:08:30.387Z,101597.53
2023-04-16T17:10:58.302Z,101597.19
2023-04-16T17:13:25.673Z,101602.44
2023-04-16T17:15:52.868Z,101602.09
2023-04-16T17:18:19.867Z,101611.47
2023-04-16T17:20:47.049Z,101609.47
2023-04-16T17:23:14.255Z,101616.50
2023-04-16T17:25:41.406Z,101618.59
2023-04-16T17:28:08.496Z,101615.09
2023-04-16T17:30:35.705Z,101608.53
2023-04-16T17:33:04.965Z,101614.38
2023-04-16T17:35:32.233Z,101617.78
2023-04-16T17:37:59.491Z,101623.25
2023-04-16T17:40:26.423Z,101624.53
2023-04-16T17:42:53.350Z,101629.91
2023-04-16T17:45:20.614Z,101637.16
2023-04-16T17:47:47.783Z,101637.59
2023-04-16T17:50:14.952Z,101639.81
2023-04-16T17:52:42.321Z,101634.66
2023-04-16T17:55:11.547Z,101646.22
2023-04-16T17:57:38.615Z,101645.88
2023-04-16T18:00:10.029Z,101640.38
2023-04-16T18:02:41.403Z,101648.91
2023-04-16T18:05:09.184Z,101646.31
2023-04-16T18:07:36.484Z,101650.28
2023-04-16T18:10:03.793Z,101651.75
2023-04-16T18:12:30.784Z,101671.38
2023-04-16T18:14:57.850Z,101663.19
2023-04-16T18:17:24.803Z,101668.06
2023-04-16T18:19:51.950Z,101677.75
2023-04-16T18:22:18.880Z,101671.06
2023-04-16T18:24:46.090Z,101680.75
2023-04-16T18:27:13.463Z,101688.44
2023-04-16T18:29:40.803Z,101684.81
2023-04-16T18:32:11.734Z,101684.66
2023-04-16T18:34:39.604Z,101691.91
2023-04-16T18:37:06.838Z,101695.03
2023-04-16T18:39:34.017Z,101698.31
2023-04-16T18:42:01.404Z,101700.19
2023-04-16T18:44:28.525Z,101703.69
2023-04-16T18:46:55.776Z,101701.09
2023-04-16T18:49:22.983Z,101707.66
2023-04-16T18:51:49.987Z,101709.75
2023-04-16T18:54:17.112Z,101715.72
2023-04-16T18:56:45.543Z,101716.16
2023-04-16T18:59:12.795Z,101721.31
2023-04-16T19:01:40.094Z,101710.63
2023-04-16T19:04:07.350Z,101714.50
2023-04-16T19:06:34.701Z,101717.44
2023-04-16T19:09:01.629Z,101716.81
2023-04-16T19:11:28.655Z,101720.09
2023-04-16T19:13:55.874Z,101711.91
2023-04-16T19:16:23.019Z,101718.91
2023-04-16T19:18:50.797Z,101721.00
2023-04-16T19:21:17.808Z,101715.47
2023-04-16T19:23:44.949Z,101714.03
2023-04-16T19:26:12.004Z,101717.56
2023-04-16T19:28:39.670Z,101717.41
2023-04-16T19:31:07.102Z,101720.53
2023-04-16T19:33:34.771Z,101726.72
2023-04-16T19:36:02.753Z,101719.34
2023-04-16T19:38:31.814Z,101720.38
2023-04-16T19:40:59.051Z,101727.03
2023-04-16T19:43:28.397Z,101726.44
2023-04-16T19:45:56.988Z,101728.06
2023-04-16T19:48:24.097Z,101726.66
2023-04-16T19:50:51.228Z,101734.69
2023-04-16T19:53:18.146Z,101736.56
2023-04-16T19:55:45.171Z,101736.41
2023-04-16T19:58:12.610Z,101723.22
2023-04-16T20:00:41.169Z,101733.50
2023-04-16T20:03:08.815Z,101737.00
2023-04-16T20:05:35.961Z,101737.44
2023-04-16T20:08:03.277Z,101736.25
2023-04-16T20:10:31.524Z,101735.81
2023-04-16T20:12:59.070Z,101738.50
2023-04-16T20:15:26.556Z,101735.44
2023-04-16T20:17:53.645Z,101746.97
2023-04-16T20:20:22.691Z,101746.16
2023-04-16T20:22:49.940Z,101743.47
2023-04-16T20:25:18.835Z,101752.56
2023-04-16T20:27:46.184Z,101744.97
2023-04-16T20:30:13.875Z,101748.69
2023-04-16T20:32:40.799Z,101741.91
2023-04-16T20:35:10.893Z,101745.63
2023-04-16T20:37:38.691Z,101745.84
2023-04-16T20:40:10.643Z,101751.44
2023-04-16T20:42:37.556Z,101752.31
2023-04-16T20:45:05.179Z,101759.31
2023-04-16T20:47:34.963Z,101760.97
2023-04-16T20:50:02.923Z,101761.19
2023-04-16T20:52:30.016Z,101767.81
2023-04-16T20:54:57.820Z,101754.84
2023-04-16T20:57:25.690Z,101754.25
2023-04-16T20:59:52.799Z,101758.56
2023-04-16T21:02:20.522Z,101756.94
2023-04-16T21:04:48.220Z,101764.16
2023-04-16T21:07:15.504Z,101767.88
2023-04-16T21:09:42.526Z,101765.63
2023-04-16T21:12:09.449Z,101759.88
2023-04-16T21:14:36.364Z,101769.38
2023-04-16T21:17:03.405Z,101770.84
2023-04-16T21:19:30.919Z,101762.00
2023-04-16T21:21:57.824Z,101764.06
2023-04-16T21:24:24.890Z,101772.72
2023-04-16T21:26:51.900Z,101761.59
2023-04-16T21:29:19.009Z,101771.50
2023-04-16T21:31:46.031Z,101778.53
2023-04-16T21:34:13.224Z,101770.09
2023-04-16T21:36:40.354Z,101768.69
2023-04-16T21:39:07.541Z,101762.94
2023-04-16T21:41:34.579Z,101767.69
2023-04-16T21:44:01.805Z,101776.38
2023-04-16T21:46:29.719Z,101768.78
2023-04-16T21:48:56.748Z,101771.50
2023-04-16T21:51:29.270Z,101762.03
2023-04-16T21:53:57.103Z,101775.06
2023-04-16T21:56:27.381Z,101769.31
2023-04-16T21:58:54.568Z,101775.31
2023-04-16T22:01:21.664Z,101768.94
2023-04-16T22:03:51.786Z,101766.09
2023-04-16T22:06:20.515Z,101775.22
2023-04-16T22:08:50.305Z,101775.44
2023-04-16T22:11:40.905Z,101784.31
2023-04-16T22:14:08.261Z,101779.81
2023-04-16T22:16:35.873Z,101780.25
2023-04-16T22:19:02.971Z,101786.22
2023-04-16T22:21:30.173Z,101779.66
2023-04-16T22:23:57.423Z,101786.06
2023-04-16T22:26:24.525Z,101785.22
2023-04-16T22:28:51.482Z,101781.94
2023-04-16T22:31:18.582Z,101787.50
2023-04-16T22:33:45.574Z,101792.66
2023-04-16T22:36:12.640Z,101788.34
2023-04-16T22:38:39.989Z,101785.69
2023-04-16T22:41:07.143Z,101797.59
2023-04-16T22:43:36.957Z,101789.81
2023-04-16T22:46:06.464Z,101798.84
2023-04-16T22:48:36.310Z,101791.84
2023-04-16T22:51:04.343Z,101796.38
2023-04-16T22:53:31.640Z,101800.31
2023-04-16T22:55:59.024Z,101795.56
2023-04-16T22:58:25.899Z,101792.47
2023-04-16T23:00:53.078Z,101788.97
2023-04-16T23:03:20.232Z,101796.19
2023-04-16T23:05:47.448Z,101789.00
2023-04-16T23:08:14.572Z,101787.56
2023-04-16T23:10:41.898Z,101792.94
2023-04-16T23:13:09.236Z,101792.31
2023-04-16T23:15:36.328Z,101797.06
2023-04-16T23:18:03.385Z,101794.38
2023-04-16T23:20:30.550Z,101796.44
2023-04-16T23:22:57.774Z,101801.59
2023-04-16T23:25:25.507Z,101800.56
2023-04-16T23:27:52.594Z,101789.44
2023-04-16T23:30:19.535Z,101795.19
2023-04-16T23:32:46.661Z,101806.72
2023-04-16T23:35:20.620Z,101792.31
2023-04-16T23:37:47.777Z,101798.28
2023-04-16T23:40:15.408Z,101793.53
2023-04-16T23:42:42.454Z,101790.03
2023-04-16T23:45:09.978Z,101790.66
2023-04-16T23:47:36.897Z,101795.38
2023-04-16T23:50:04.514Z,101798.66
2023-04-16T23:52:31.528Z,101787.56
2023-04-16T23:54:58.585Z,101796.19
2023-04-16T23:57:25.508Z,101791.66
2023-04-16T23:59:52.713Z,101795.97
